Time,TemperatureF,DewpointF,PressureIn,WindDirection,WindDirectionDegrees,WindSpeedMPH,WindSpeedGustMPH,Humidity,HourlyPrecipIn,Conditions,Clouds,dailyrainin,SoftwareType,DateUTC
2013-08-21 00:00:00,75.6,74.7,30.13,ENE,62,0.0,0.0,97,0.00,,,0.13,Wunderground v.1.15,2013-08-21 04:00:00,
2013-08-21 00:05:00,75.5,74.3,30.13,ENE,62,0.0,0.0,96,0.00,,,0.00,Wunderground v.1.15,2013-08-21 04:05:00,
2013-08-21 00:10:00,75.4,74.2,30.13,ENE,62,0.0,0.0,96,0.00,,,0.00,Wunderground v.1.15,2013-08-21 04:10:00,
2013-08-21 00:15:00,75.4,74.5,30.13,ENE,62,0.0,0.0,97,0.00,,,0.00,Wunderground v.1.15,2013-08-21 04:15:00,
2013-08-21 00:25:00,75.3,74.4,30.13,ENE,62,0.0,0.0,97,0.00,,,0.00,Wunderground v.1.15,2013-08-21 04:25:00,
2013-08-21 00:30:00,75.3,74.4,30.13,ENE,62,0.0,0.0,97,0.00,,,0.00,Wunderground v.1.15,2013-08-21 04:30:00,
2013-08-21 00:40:00,75.2,74.3,30.13,ENE,62,0.0,0.0,97,0.00,,,0.00,Wunderground v.1.15,2013-08-21 04:40:00,
2013-08-21 00:50:00,75.1,74.2,30.13,ENE,62,0.0,0.0,97,0.00,,,0.00,Wunderground v.1.15,2013-08-21 04:50:00,
2013-08-21 00:55:00,75.1,74.2,30.13,ENE,62,0.0,0.0,97,0.00,,,0.00,Wunderground v.1.15,2013-08-21 04:55:00,
2013-08-21 01:05:00,75.1,74.2,30.13,ENE,62,0.0,0.0,97,0.00,,,0.00,Wunderground v.1.15,2013-08-21 05:05:00,
2013-08-21 01:15:00,75.2,74.3,30.13,ENE,62,0.0,0.0,97,0.00,,,0.00,Wunderground v.1.15,2013-08-21 05:15:00,
2013-08-21 01:20:00,75.2,74.3,30.13,ENE,62,0.0,0.0,97,0.00,,,0.00,Wunderground v.1.15,2013-08-21 05:20:00,
2013-08-21 01:30:00,75.1,74.2,30.13,ENE,62,0.0,0.0,97,0.00,,,0.00,Wunderground v.1.15,2013-08-21 05:30:00,
2013-08-21 01:40:00,74.9,74.0,30.13,ENE,62,0.0,0.0,97,0.00,,,0.00,Wunderground v.1.15,2013-08-21 05:40:00,
2013-08-21 01:50:00,74.9,74.0,30.13,ENE,62,0.0,0.0,97,0.00,,,0.00,Wunderground v.1.15,2013-08-21 05:50:00,
2013-08-21 01:55:00,74.9,74.0,30.13,ENE,62,0.0,0.0,97,0.00,,,0.00,Wunderground v.1.15,2013-08-21 05:55:00,
2013-08-21 02:05:00,74.9,74.0,30.12,ENE,62,0.0,0.0,97,0.00,,,0.00,Wunderground v.1.15,2013-08-21 06:05:00,
2013-08-21 02:10:00,74.9,74.0,30.12,ENE,62,0.0,0.0,97,0.00,,,0.00,Wunderground v.1.15,2013-08-21 06:10:00,
2013-08-21 02:20:00,74.7,73.8,30.12,ENE,62,0.0,0.0,97,0.00,,,0.00,Wunderground v.1.15,2013-08-21 06:20:00,
2013-08-21 02:30:00,74.5,73.6,30.12,ENE,62,0.0,0.0,97,0.00,,,0.00,Wunderground v.1.15,2013-08-21 06:30:00,
2013-08-21 02:35:00,74.4,73.5,30.12,ENE,62,0.0,0.0,97,0.00,,,0.00,Wunderground v.1.15,2013-08-21 06:35:00,
2013-08-21 02:45:00,74.3,73.4,30.12,ENE,62,0.0,0.0,97,0.00,,,0.00,Wunderground v.1.15,2013-08-21 06:45:00,
2013-08-21 02:50:00,74.2,73.3,30.12,ENE,62,0.0,0.0,97,0.00,,,0.00,Wunderground v.1.15,2013-08-21 06:50:00,
2013-08-21 03:00:00,74.1,73.2,30.12,ENE,62,0.0,0.0,97,0.00,,,0.00,Wunderground v.1.15,2013-08-21 07:00:00,
2013-08-21 03:05:00,74.0,73.1,30.12,ENE,62,0.0,0.0,97,0.00,,,0.00,Wunderground v.1.15,2013-08-21 07:05:00,
2013-08-21 03:15:00,73.9,73.0,30.12,ENE,62,0.0,0.0,97,0.00,,,0.00,Wunderground v.1.15,2013-08-21 07:15:00,
2013-08-21 03:25:00,73.7,72.8,30.12,ENE,62,0.0,0.0,97,0.00,,,0.00,Wunderground v.1.15,2013-08-21 07:25:00,
2013-08-21 03:35:00,73.6,72.7,30.12,ENE,62,0.0,0.0,97,0.00,,,0.00,Wunderground v.1.15,2013-08-21 07:35:00,
2013-08-21 03:40:00,73.5,72.6,30.11,ENE,62,0.0,0.0,97,0.00,,,0.00,Wunderground v.1.15,2013-08-21 07:40:00,
2013-08-21 03:50:00,73.5,72.6,30.12,ENE,62,0.0,0.0,97,0.00,,,0.00,Wunderground v.1.15,2013-08-21 07:50:00,
2013-08-21 04:00:00,73.3,72.4,30.12,ENE,62,0.0,0.0,97,0.00,,,0.00,Wunderground v.1.15,2013-08-21 08:00:00,
2013-08-21 04:10:00,73.2,72.3,30.12,ENE,62,0.0,0.0,97,0.00,,,0.00,Wunderground v.1.15,2013-08-21 08:10:00,
2013-08-21 04:15:00,73.1,72.2,30.12,ENE,62,0.0,0.0,97,0.00,,,0.00,Wunderground v.1.15,2013-08-21 08:15:00,
2013-08-21 04:25:00,73.1,72.2,30.12,ENE,62,0.0,0.0,97,0.00,,,0.00,Wunderground v.1.15,2013-08-21 08:25:00,
2013-08-21 04:30:00,73.0,72.1,30.11,ENE,62,0.0,0.0,97,0.00,,,0.00,Wunderground v.1.15,2013-08-21 08:30:00,
2013-08-21 04:40:00,72.9,72.0,30.11,ENE,62,0.0,0.0,97,0.00,,,0.00,Wunderground v.1.15,2013-08-21 08:40:00,
2013-08-21 04:50:00,72.8,71.9,30.11,ENE,62,0.0,0.0,97,0.00,,,0.00,Wunderground v.1.15,2013-08-21 08:50:00,
2013-08-21 04:55:00,72.8,71.9,30.11,ENE,62,0.0,0.0,97,0.00,,,0.00,Wunderground v.1.15,2013-08-21 08:55:00,
2013-08-21 05:05:00,72.8,71.9,30.11,ENE,62,0.0,0.0,97,0.00,,,0.00,Wunderground v.1.15,2013-08-21 09:05:00,
2013-08-21 05:10:00,72.8,71.9,30.10,ENE,62,0.0,0.0,97,0.00,,,0.00,Wunderground v.1.15,2013-08-21 09:10:00,
2013-08-21 05:20:00,72.7,71.8,30.11,ENE,62,0.0,0.0,97,0.00,,,0.00,Wunderground v.1.15,2013-08-21 09:20:00,
2013-08-21 05:25:00,72.7,71.8,30.11,ENE,62,0.0,0.0,97,0.00,,,0.00,Wunderground v.1.15,2013-08-21 09:25:00,
2013-08-21 05:35:00,72.6,71.7,30.11,ENE,62,0.0,0.0,97,0.00,,,0.00,Wunderground v.1.15,2013-08-21 09:35:00,
2013-08-21 05:45:00,72.6,71.7,30.12,ENE,62,0.0,0.0,97,0.00,,,0.00,Wunderground v.1.15,2013-08-21 09:45:00,
2013-08-21 05:50:00,72.6,71.7,30.12,ENE,62,0.0,0.0,97,0.00,,,0.00,Wunderground v.1.15,2013-08-21 09:50:00,
2013-08-21 06:00:00,72.4,71.5,30.12,ENE,62,0.0,0.0,97,0.00,,,0.00,Wunderground v.1.15,2013-08-21 10:00:00,
2013-08-21 06:05:00,72.4,71.5,30.12,ENE,62,0.0,0.0,97,0.00,,,0.00,Wunderground v.1.15,2013-08-21 10:05:00,
2013-08-21 06:15:00,72.3,71.4,30.13,ENE,62,0.0,0.0,97,0.00,,,0.00,Wunderground v.1.15,2013-08-21 10:15:00,
2013-08-21 06:25:00,72.2,71.3,30.13,ENE,62,0.0,0.0,97,0.00,,,0.00,Wunderground v.1.15,2013-08-21 10:25:00,
2013-08-21 06:30:00,72.2,71.3,30.13,ENE,62,0.0,0.0,97,0.00,,,0.00,Wunderground v.1.15,2013-08-21 10:30:00,
2013-08-21 06:40:00,72.2,71.3,30.14,ENE,62,0.0,0.0,97,0.00,,,0.00,Wunderground v.1.15,2013-08-21 10:40:00,
2013-08-21 06:50:00,72.2,71.3,30.14,ENE,62,0.0,0.0,97,0.00,,,0.00,Wunderground v.1.15,2013-08-21 10:50:00,
2013-08-21 06:55:00,72.3,71.4,30.14,ENE,62,0.0,0.0,97,0.00,,,0.00,Wunderground v.1.15,2013-08-21 10:55:00,
2013-08-21 07:00:00,72.3,71.4,30.15,ENE,62,0.0,0.0,97,0.00,,,0.00,Wunderground v.1.15,2013-08-21 11:00:00,
2013-08-21 07:10:00,72.3,71.4,30.15,ENE,62,0.0,0.0,97,0.00,,,0.00,Wunderground v.1.15,2013-08-21 11:10:00,
2013-08-21 07:20:00,72.5,71.9,30.15,ENE,62,0.0,0.0,98,0.00,,,0.00,Wunderground v.1.15,2013-08-21 11:20:00,
2013-08-21 07:25:00,72.6,72.0,30.15,ENE,62,0.0,0.0,98,0.00,,,0.00,Wunderground v.1.15,2013-08-21 11:25:00,
2013-08-21 07:35:00,73.0,72.4,30.15,ENE,62,0.0,0.0,98,0.00,,,0.00,Wunderground v.1.15,2013-08-21 11:35:00,
2013-08-21 07:45:00,73.8,73.2,30.15,ENE,62,0.0,0.0,98,0.00,,,0.00,Wunderground v.1.15,2013-08-21 11:45:00,
2013-08-21 07:50:00,74.2,73.6,30.15,ENE,62,0.0,0.0,98,0.00,,,0.00,Wunderground v.1.15,2013-08-21 11:50:00,
2013-08-21 08:00:00,75.3,74.7,30.15,ENE,62,0.0,0.0,98,0.00,,,0.00,Wunderground v.1.15,2013-08-21 12:00:00,
2013-08-21 08:10:00,76.5,75.9,30.15,ENE,62,0.0,0.0,98,0.00,,,0.00,Wunderground v.1.15,2013-08-21 12:10:00,
2013-08-21 08:20:00,77.7,76.8,30.16,ENE,62,0.0,0.0,97,0.00,,,0.00,Wunderground v.1.15,2013-08-21 12:20:00,
2013-08-21 08:30:00,78.9,77.7,30.16,ENE,62,0.0,2.0,96,0.00,,,0.00,Wunderground v.1.15,2013-08-21 12:30:00,
2013-08-21 08:40:00,80.5,78.6,30.16,ENE,69,1.0,1.0,94,0.00,,,0.00,Wunderground v.1.15,2013-08-21 12:40:00,
2013-08-21 08:50:00,81.5,78.3,30.16,NE,56,1.0,2.0,90,0.00,,,0.00,Wunderground v.1.15,2013-08-21 12:50:00,
2013-08-21 08:55:00,82.0,78.1,30.16,ESE,107,1.0,2.0,88,0.00,,,0.00,Wunderground v.1.15,2013-08-21 12:55:00,
2013-08-21 09:05:00,83.0,78.7,30.16,East,83,1.0,1.0,87,0.00,,,0.00,Wunderground v.1.15,2013-08-21 13:05:00,
2013-08-21 09:10:00,83.4,78.4,30.16,East,83,1.0,1.0,85,0.00,,,0.00,Wunderground v.1.15,2013-08-21 13:10:00,
2013-08-21 09:20:00,83.4,78.1,30.16,ESE,117,0.0,0.0,84,0.00,,,0.00,Wunderground v.1.15,2013-08-21 13:20:00,
2013-08-21 09:30:00,83.5,77.8,30.16,ESE,120,0.0,0.0,83,0.00,,,0.00,Wunderground v.1.15,2013-08-21 13:30:00,
2013-08-21 09:35:00,84.0,78.6,30.16,ESE,108,0.0,2.0,84,0.00,,,0.00,Wunderground v.1.15,2013-08-21 13:35:00,
2013-08-21 09:45:00,84.9,78.4,30.17,SE,125,1.0,1.0,81,0.00,,,0.00,Wunderground v.1.15,2013-08-21 13:45:00,
2013-08-21 09:50:00,85.2,77.9,30.17,ENE,64,1.0,3.0,79,0.00,,,0.00,Wunderground v.1.15,2013-08-21 13:50:00,
2013-08-21 10:00:00,85.5,77.9,30.17,SSE,147,1.0,1.0,78,0.00,,,0.00,Wunderground v.1.15,2013-08-21 14:00:00,
2013-08-21 10:05:00,85.4,77.8,30.17,SSE,163,1.0,1.0,78,0.00,,,0.00,Wunderground v.1.15,2013-08-21 14:05:00,
2013-08-21 10:15:00,85.1,76.7,30.17,SSE,165,2.0,2.0,76,0.00,,,0.00,Wunderground v.1.15,2013-08-21 14:15:00,
2013-08-21 10:25:00,85.4,77.4,30.17,West,279,1.0,2.0,77,0.00,,,0.00,Wunderground v.1.15,2013-08-21 14:25:00,
2013-08-21 10:35:00,84.6,77.0,30.17,West,281,2.0,2.0,78,0.00,,,0.00,Wunderground v.1.15,2013-08-21 14:35:00,
2013-08-21 10:45:00,83.7,78.0,30.17,West,281,0.0,1.0,83,0.00,,,0.00,Wunderground v.1.15,2013-08-21 14:45:00,
2013-08-21 10:50:00,83.3,78.7,30.18,West,281,0.0,0.0,86,0.00,,,0.00,Wunderground v.1.15,2013-08-21 14:50:00,
2013-08-21 11:00:00,81.7,77.5,30.18,West,281,0.0,0.0,87,0.00,,,0.01,Wunderground v.1.15,2013-08-21 15:00:00,
2013-08-21 11:10:00,81.2,78.3,30.18,West,281,0.0,0.0,91,0.14,,,0.03,Wunderground v.1.15,2013-08-21 15:10:00,
2013-08-21 11:15:00,81.0,78.1,30.18,West,281,0.0,0.0,91,0.08,,,0.04,Wunderground v.1.15,2013-08-21 15:15:00,
2013-08-21 11:25:00,81.2,79.3,30.17,West,281,0.0,0.0,94,0.05,,,0.04,Wunderground v.1.15,2013-08-21 15:25:00,
2013-08-21 11:30:00,81.7,79.1,30.17,West,281,0.0,0.0,92,0.04,,,0.04,Wunderground v.1.15,2013-08-21 15:30:00,
2013-08-21 11:40:00,83.0,79.4,30.17,West,281,1.0,1.0,89,0.00,,,0.04,Wunderground v.1.15,2013-08-21 15:40:00,
2013-08-21 11:45:00,83.5,78.9,30.17,SSE,149,0.0,1.0,86,0.00,,,0.04,Wunderground v.1.15,2013-08-21 15:45:00,
2013-08-21 11:55:00,83.8,78.1,30.17,SE,125,1.0,1.0,83,0.00,,,0.04,Wunderground v.1.15,2013-08-21 15:55:00,
2013-08-21 12:00:00,83.7,78.7,30.17,ESE,121,0.0,0.0,85,0.00,,,0.04,Wunderground v.1.15,2013-08-21 16:00:00,
2013-08-21 12:10:00,83.4,78.1,30.17,SSE,152,0.0,2.0,84,0.00,,,0.04,Wunderground v.1.15,2013-08-21 16:10:00,
2013-08-21 12:15:00,83.4,78.8,30.17,South,190,1.0,2.0,86,0.00,,,0.05,Wunderground v.1.15,2013-08-21 16:15:00,
2013-08-21 12:25:00,82.7,78.8,30.16,SSW,209,1.0,2.0,88,0.17,,,0.09,Wunderground v.1.15,2013-08-21 16:25:00,
2013-08-21 12:35:00,83.0,78.4,30.16,SSE,166,1.0,1.0,86,0.05,,,0.09,Wunderground v.1.15,2013-08-21 16:35:00,
2013-08-21 12:40:00,83.4,78.4,30.16,South,186,1.0,1.0,85,0.00,,,0.09,Wunderground v.1.15,2013-08-21 16:40:00,
2013-08-21 12:50:00,84.4,77.9,30.15,SE,125,2.0,2.0,81,0.00,,,0.09,Wunderground v.1.15,2013-08-21 16:50:00,
2013-08-21 13:00:00,85.0,78.1,30.16,ESE,113,2.0,2.0,80,0.00,,,0.09,Wunderground v.1.15,2013-08-21 17:00:00,
2013-08-21 13:05:00,85.4,78.5,30.16,ENE,70,3.0,3.0,80,0.00,,,0.09,Wunderground v.1.15,2013-08-21 17:05:00,
2013-08-21 13:15:00,86.1,78.4,30.16,SW,234,2.0,6.0,78,0.00,,,0.09,Wunderground v.1.15,2013-08-21 17:15:00,
2013-08-21 13:20:00,85.9,77.5,30.15,East,92,2.0,5.0,76,0.00,,,0.09,Wunderground v.1.15,2013-08-21 17:20:00,
2013-08-21 13:30:00,85.2,76.4,30.15,SE,141,2.0,2.0,75,0.00,,,0.09,Wunderground v.1.15,2013-08-21 17:30:00,
2013-08-21 13:35:00,85.2,76.4,30.15,ESE,123,2.0,3.0,75,0.00,,,0.09,Wunderground v.1.15,2013-08-21 17:35:00,
2013-08-21 13:45:00,85.7,76.9,30.15,SE,125,2.0,3.0,75,0.00,,,0.09,Wunderground v.1.15,2013-08-21 17:45:00,
2013-08-21 13:55:00,85.7,76.5,30.14,East,96,2.0,2.0,74,0.00,,,0.09,Wunderground v.1.15,2013-08-21 17:55:00,
2013-08-21 14:05:00,86.3,75.8,30.13,SW,229,2.0,4.0,71,0.00,,,0.09,Wunderground v.1.15,2013-08-21 18:05:00,
2013-08-21 14:10:00,86.6,76.1,30.13,SE,136,3.0,3.0,71,0.00,,,0.09,Wunderground v.1.15,2013-08-21 18:10:00,
2013-08-21 14:20:00,86.6,76.1,30.13,NE,46,3.0,3.0,71,0.00,,,0.09,Wunderground v.1.15,2013-08-21 18:20:00,
2013-08-21 14:30:00,87.1,77.4,30.12,ESE,118,3.0,3.0,73,0.00,,,0.09,Wunderground v.1.15,2013-08-21 18:30:00,
2013-08-21 14:35:00,87.0,76.9,30.13,SE,138,3.0,3.0,72,0.00,,,0.09,Wunderground v.1.15,2013-08-21 18:35:00,
2013-08-21 14:45:00,87.5,76.9,30.12,ESE,118,2.0,4.0,71,0.00,,,0.09,Wunderground v.1.15,2013-08-21 18:45:00,
2013-08-21 14:50:00,87.2,75.8,30.12,ESE,104,3.0,3.0,69,0.00,,,0.09,Wunderground v.1.15,2013-08-21 18:50:00,
2013-08-21 15:00:00,87.0,77.3,30.11,ENE,67,3.0,3.0,73,0.00,,,0.09,Wunderground v.1.15,2013-08-21 19:00:00,
2013-08-21 15:10:00,86.8,77.5,30.11,ESE,120,3.0,3.0,74,0.00,,,0.09,Wunderground v.1.15,2013-08-21 19:10:00,
2013-08-21 15:15:00,86.6,76.9,30.11,East,86,4.0,4.0,73,0.00,,,0.09,Wunderground v.1.15,2013-08-21 19:15:00,
2013-08-21 15:25:00,87.0,77.3,30.10,East,101,3.0,10.0,73,0.00,,,0.09,Wunderground v.1.15,2013-08-21 19:25:00,
2013-08-21 15:30:00,86.8,77.1,30.10,SE,146,3.0,4.0,73,0.00,,,0.09,Wunderground v.1.15,2013-08-21 19:30:00,
2013-08-21 15:40:00,86.6,76.9,30.10,ESE,122,3.0,3.0,73,0.00,,,0.09,Wunderground v.1.15,2013-08-21 19:40:00,
2013-08-21 15:50:00,86.5,77.6,30.10,ESE,117,3.0,4.0,75,0.00,,,0.09,Wunderground v.1.15,2013-08-21 19:50:00,
2013-08-21 15:55:00,86.6,77.7,30.10,ESE,111,3.0,4.0,75,0.00,,,0.09,Wunderground v.1.15,2013-08-21 19:55:00,
2013-08-21 16:05:00,86.6,76.9,30.10,SE,126,3.0,3.0,73,0.00,,,0.09,Wunderground v.1.15,2013-08-21 20:05:00,
2013-08-21 16:10:00,86.5,76.8,30.10,SSW,200,3.0,4.0,73,0.00,,,0.09,Wunderground v.1.15,2013-08-21 20:10:00,
2013-08-21 16:20:00,86.8,76.7,30.09,South,173,3.0,4.0,72,0.00,,,0.09,Wunderground v.1.15,2013-08-21 20:20:00,
2013-08-21 16:25:00,86.9,76.4,30.09,SW,224,3.0,4.0,71,0.00,,,0.09,Wunderground v.1.15,2013-08-21 20:25:00,
2013-08-21 16:35:00,86.8,76.3,30.10,South,169,3.0,3.0,71,0.00,,,0.09,Wunderground v.1.15,2013-08-21 20:35:00,
2013-08-21 16:45:00,86.6,76.1,30.10,SE,129,3.0,5.0,71,0.00,,,0.09,Wunderground v.1.15,2013-08-21 20:45:00,
2013-08-21 16:50:00,86.5,76.0,30.10,ESE,122,3.0,5.0,71,0.00,,,0.09,Wunderground v.1.15,2013-08-21 20:50:00,
2013-08-21 17:00:00,86.5,76.0,30.10,SW,232,4.0,4.0,71,0.00,,,0.09,Wunderground v.1.15,2013-08-21 21:00:00,
2013-08-21 17:05:00,87.1,76.1,30.10,SE,144,3.0,4.0,70,0.00,,,0.09,Wunderground v.1.15,2013-08-21 21:05:00,
2013-08-21 17:15:00,87.2,75.8,30.09,South,188,3.0,3.0,69,0.00,,,0.09,Wunderground v.1.15,2013-08-21 21:15:00,
2013-08-21 17:20:00,86.9,75.1,30.09,ESE,109,3.0,5.0,68,0.00,,,0.09,Wunderground v.1.15,2013-08-21 21:20:00,
2013-08-21 17:30:00,86.2,74.0,30.09,SE,143,2.0,2.0,67,0.00,,,0.09,Wunderground v.1.15,2013-08-21 21:30:00,
2013-08-21 17:40:00,85.2,75.1,30.08,SSE,159,2.0,2.0,72,0.00,,,0.09,Wunderground v.1.15,2013-08-21 21:40:00,
2013-08-21 17:50:00,84.6,75.0,30.08,West,260,2.0,2.0,73,0.00,,,0.09,Wunderground v.1.15,2013-08-21 21:50:00,
2013-08-21 17:55:00,84.3,75.5,30.08,SSE,147,2.0,2.0,75,0.00,,,0.09,Wunderground v.1.15,2013-08-21 21:55:00,
2013-08-21 18:05:00,83.7,75.3,30.08,SE,135,2.0,3.0,76,0.00,,,0.09,Wunderground v.1.15,2013-08-21 22:05:00,
2013-08-21 18:10:00,83.5,75.5,30.08,SE,140,2.0,2.0,77,0.00,,,0.09,Wunderground v.1.15,2013-08-21 22:10:00,
2013-08-21 18:20:00,83.1,75.5,30.08,South,173,1.0,1.0,78,0.00,,,0.09,Wunderground v.1.15,2013-08-21 22:20:00,
2013-08-21 18:30:00,82.7,75.5,30.08,WSW,246,1.0,2.0,79,0.00,,,0.09,Wunderground v.1.15,2013-08-21 22:30:00,
2013-08-21 18:35:00,82.5,75.7,30.07,SSE,161,1.0,3.0,80,0.00,,,0.09,Wunderground v.1.15,2013-08-21 22:35:00,
2013-08-21 18:45:00,82.4,76.0,30.07,South,170,1.0,2.0,81,0.00,,,0.09,Wunderground v.1.15,2013-08-21 22:45:00,
2013-08-21 18:50:00,82.3,75.9,30.07,SSE,158,1.0,1.0,81,0.00,,,0.09,Wunderground v.1.15,2013-08-21 22:50:00,
2013-08-21 19:00:00,82.1,76.1,30.07,SSE,148,1.0,1.0,82,0.00,,,0.09,Wunderground v.1.15,2013-08-21 23:00:00,
2013-08-21 19:05:00,82.1,76.1,30.07,South,181,1.0,1.0,82,0.00,,,0.09,Wunderground v.1.15,2013-08-21 23:05:00,
2013-08-21 19:15:00,82.0,76.0,30.07,SE,124,1.0,2.0,82,0.00,,,0.09,Wunderground v.1.15,2013-08-21 23:15:00,
2013-08-21 19:20:00,81.9,75.9,30.07,SSE,157,1.0,1.0,82,0.00,,,0.09,Wunderground v.1.15,2013-08-21 23:20:00,
2013-08-21 19:30:00,81.6,75.9,30.07,SSE,153,1.0,1.0,83,0.00,,,0.09,Wunderground v.1.15,2013-08-21 23:30:00,
2013-08-21 19:35:00,81.6,75.9,30.07,ESE,121,1.0,1.0,83,0.00,,,0.09,Wunderground v.1.15,2013-08-21 23:35:00,
2013-08-21 19:45:00,81.4,75.7,30.08,ESE,118,1.0,1.0,83,0.00,,,0.09,Wunderground v.1.15,2013-08-21 23:45:00,
2013-08-21 19:55:00,81.3,76.0,30.08,SSE,148,1.0,1.0,84,0.00,,,0.09,Wunderground v.1.15,2013-08-21 23:55:00,
2013-08-21 20:00:00,81.2,75.9,30.08,SSE,154,0.0,0.0,84,0.00,,,0.09,Wunderground v.1.15,2013-08-22 00:00:00,
2013-08-21 20:10:00,81.0,75.7,30.09,SSE,154,0.0,0.0,84,0.00,,,0.09,Wunderground v.1.15,2013-08-22 00:10:00,
2013-08-21 20:15:00,80.9,76.0,30.08,SSE,154,0.0,0.0,85,0.00,,,0.09,Wunderground v.1.15,2013-08-22 00:15:00,
2013-08-21 20:25:00,80.7,76.1,30.08,SSE,154,0.0,0.0,86,0.00,,,0.09,Wunderground v.1.15,2013-08-22 00:25:00,
2013-08-21 20:35:00,80.5,75.9,30.09,SSE,154,0.0,1.0,86,0.00,,,0.09,Wunderground v.1.15,2013-08-22 00:35:00,
2013-08-21 20:40:00,80.3,76.1,30.09,SSE,154,0.0,0.0,87,0.00,,,0.09,Wunderground v.1.15,2013-08-22 00:40:00,
2013-08-21 20:50:00,80.1,75.9,30.09,SSE,154,0.0,0.0,87,0.00,,,0.09,Wunderground v.1.15,2013-08-22 00:50:00,
2013-08-21 21:00:00,79.6,75.7,30.10,SSE,154,0.0,0.0,88,0.00,,,0.09,Wunderground v.1.15,2013-08-22 01:00:00,
2013-08-21 21:05:00,79.1,75.6,30.10,SSE,154,0.0,0.0,89,0.00,,,0.09,Wunderground v.1.15,2013-08-22 01:05:00,
2013-08-21 21:15:00,78.7,75.5,30.11,SSE,154,0.0,0.0,90,0.00,,,0.09,Wunderground v.1.15,2013-08-22 01:15:00,
2013-08-21 21:25:00,78.7,75.5,30.11,SSE,154,0.0,0.0,90,0.00,,,0.09,Wunderground v.1.15,2013-08-22 01:25:00,
2013-08-21 21:30:00,78.6,75.4,30.11,SSE,154,0.0,0.0,90,0.00,,,0.09,Wunderground v.1.15,2013-08-22 01:30:00,
2013-08-21 21:40:00,78.5,75.7,30.11,SSE,154,0.0,0.0,91,0.00,,,0.09,Wunderground v.1.15,2013-08-22 01:40:00,
2013-08-21 21:50:00,78.3,75.5,30.11,SSE,154,0.0,0.0,91,0.00,,,0.09,Wunderground v.1.15,2013-08-22 01:50:00,
2013-08-21 21:55:00,78.2,75.7,30.12,SSE,154,0.0,0.0,92,0.00,,,0.09,Wunderground v.1.15,2013-08-22 01:55:00,
2013-08-21 22:05:00,78.0,75.5,30.12,SSE,154,0.0,0.0,92,0.00,,,0.09,Wunderground v.1.15,2013-08-22 02:05:00,
2013-08-21 22:15:00,77.9,75.4,30.12,SSE,154,0.0,0.0,92,0.00,,,0.09,Wunderground v.1.15,2013-08-22 02:15:00,
2013-08-21 22:20:00,77.7,75.2,30.12,SSE,154,0.0,0.0,92,0.00,,,0.09,Wunderground v.1.15,2013-08-22 02:20:00,
2013-08-21 22:30:00,77.5,75.3,30.12,SSE,154,0.0,0.0,93,0.00,,,0.09,Wunderground v.1.15,2013-08-22 02:30:00,
2013-08-21 22:35:00,77.3,75.1,30.12,SSE,154,0.0,0.0,93,0.00,,,0.09,Wunderground v.1.15,2013-08-22 02:35:00,
2013-08-21 22:45:00,77.0,74.8,30.12,SSE,154,0.0,0.0,93,0.00,,,0.09,Wunderground v.1.15,2013-08-22 02:45:00,
2013-08-21 22:50:00,76.9,75.0,30.12,SSE,154,0.0,0.0,94,0.00,,,0.09,Wunderground v.1.15,2013-08-22 02:50:00,
2013-08-21 23:00:00,76.8,74.9,30.12,SSE,154,0.0,0.0,94,0.00,,,0.09,Wunderground v.1.15,2013-08-22 03:00:00,
2013-08-21 23:10:00,76.6,74.7,30.13,SSE,154,0.0,0.0,94,0.00,,,0.09,Wunderground v.1.15,2013-08-22 03:10:00,
2013-08-21 23:15:00,76.5,74.6,30.13,SSE,154,0.0,0.0,94,0.00,,,0.09,Wunderground v.1.15,2013-08-22 03:15:00,
2013-08-21 23:25:00,76.3,74.4,30.12,SSE,154,0.0,0.0,94,0.00,,,0.09,Wunderground v.1.15,2013-08-22 03:25:00,
2013-08-21 23:30:00,76.2,74.3,30.12,SSE,154,0.0,0.0,94,0.00,,,0.09,Wunderground v.1.15,2013-08-22 03:30:00,
2013-08-21 23:40:00,75.9,74.4,30.12,SSE,154,0.0,0.0,95,0.00,,,0.09,Wunderground v.1.15,2013-08-22 03:40:00,
2013-08-21 23:50:00,75.9,74.4,30.11,SSE,154,0.0,0.0,95,0.00,,,0.09,Wunderground v.1.15,2013-08-22 03:50:00,
2013-08-21 23:55:00,75.8,74.3,30.11,SSE,154,0.0,1.0,95,0.00,,,0.09,Wunderground v.1.15,2013-08-22 03:55:00,